Time;durP1;ratioP1;P1;durP2;ratioP2;P2;SDS_P1;SDS_P2;PMS_P1;PMS_P2;Temp;Humidity;BMP_temperature;BMP_pressure;BME280_temperature;BME280_humidity;BME280_pressure;Samples;Min_cycle;Max_cycle;Signal;HPM_P1;HPM_P2
2022/07/31 00:01:26;;;;;;;5.55;4.90;;;;;;;17.42;100.00;94154.05;1647069;86;21089;-57
2022/07/31 00:03:54;;;;;;;8.08;4.97;;;;;;;17.46;100.00;94158.73;1619418;88;21527;-57
2022/07/31 00:06:23;;;;;;;5.53;4.60;;;;;;;17.49;100.00;94148.72;1653259;85;20991;-58
2022/07/31 00:08:51;;;;;;;8.08;5.40;;;;;;;17.54;100.00;94149.98;1624837;85;21161;-58
2022/07/31 00:11:18;;;;;;;10.13;5.87;;;;;;;17.52;100.00;94148.34;1663807;85;21512;-58
2022/07/31 00:13:46;;;;;;;5.22;4.78;;;;;;;17.50;100.00;94141.15;1662818;85;21059;-58
2022/07/31 00:16:14;;;;;;;5.92;5.17;;;;;;;17.48;100.00;94136.08;1651349;84;21070;-57
2022/07/31 00:18:42;;;;;;;5.92;4.67;;;;;;;17.46;100.00;94135.08;1640947;85;21447;-57
2022/07/31 00:21:10;;;;;;;4.80;4.40;;;;;;;17.46;100.00;94136.47;1661439;85;21237;-57
2022/07/31 00:23:38;;;;;;;7.50;5.42;;;;;;;17.44;100.00;94133.45;1646381;86;21023;-57
2022/07/31 00:26:06;;;;;;;9.33;5.83;;;;;;;17.41;100.00;94126.09;1651749;86;21044;-57
2022/07/31 00:28:35;;;;;;;13.25;8.10;;;;;;;17.36;100.00;94121.30;1628450;86;20978;-57
2022/07/31 00:31:04;;;;;;;12.90;8.45;;;;;;;17.39;100.00;94126.61;1640034;86;21423;-57
2022/07/31 00:33:32;;;;;;;16.30;9.15;;;;;;;17.38;100.00;94129.89;1633955;86;21275;-58
2022/07/31 00:36:01;;;;;;;11.30;8.25;;;;;;;17.37;100.00;94129.77;1632538;86;21424;-58
2022/07/31 00:38:29;;;;;;;8.15;7.10;;;;;;;17.34;100.00;94130.77;1643252;86;21035;-58
2022/07/31 00:40:58;;;;;;;12.68;6.97;;;;;;;17.34;100.00;94132.94;1610724;88;21234;-57
2022/07/31 00:43:26;;;;;;;8.28;6.65;;;;;;;17.36;100.00;94134.58;1665067;85;21002;-57
2022/07/31 00:45:56;;;;;;;9.00;7.33;;;;;;;17.39;100.00;94138.35;1669654;85;21175;-57
2022/07/31 00:48:24;;;;;;;10.32;7.08;;;;;;;17.39;100.00;94141.91;1661538;85;21353;-57
2022/07/31 00:50:53;;;;;;;6.28;5.67;;;;;;;17.44;100.00;94137.62;1665187;85;21136;-57
2022/07/31 00:53:21;;;;;;;9.38;6.03;;;;;;;17.48;100.00;94129.77;1686638;84;21204;-57
2022/07/31 00:55:49;;;;;;;6.75;5.80;;;;;;;17.46;100.00;94117.01;1686072;84;21045;-57
2022/07/31 00:58:17;;;;;;;7.53;6.10;;;;;;;17.45;100.00;94119.02;1670755;85;21727;-57
2022/07/31 01:00:45;;;;;;;8.08;6.72;;;;;;;17.44;100.00;94118.89;1666888;84;21066;-58
2022/07/31 01:03:13;;;;;;;8.73;5.62;;;;;;;17.43;100.00;94118.77;1646810;84;21010;-58
2022/07/31 01:05:41;;;;;;;7.53;5.30;;;;;;;17.44;100.00;94105.64;1672201;85;21125;-58
2022/07/31 01:08:09;;;;;;;13.50;6.40;;;;;;;17.45;100.00;94108.54;1654793;84;21573;-58
2022/07/31 01:10:48;;;;;;;9.18;6.12;;;;;;;17.41;100.00;94100.44;1644228;86;21162;-56
2022/07/31 01:13:36;;;;;;;6.67;5.65;;;;;;;17.42;100.00;94100.56;1655134;85;21121;-57
2022/07/31 01:16:06;;;;;;;10.85;7.67;;;;;;;17.50;100.00;94104.98;1654990;85;21030;-57
2022/07/31 01:18:35;;;;;;;11.25;8.13;;;;;;;17.51;100.00;94100.94;1648255;85;21019;-57
2022/07/31 01:21:06;;;;;;;10.32;6.70;;;;;;;17.48;100.00;94097.78;1654993;85;21546;-57
2022/07/31 01:24:22;;;;;;;9.10;6.97;;;;;;;17.45;100.00;94098.80;1660235;84;21294;-57
2022/07/31 01:27:02;;;;;;;10.82;7.33;;;;;;;17.42;100.00;94097.05;1664597;85;21010;-57
2022/07/31 01:29:45;;;;;;;9.58;7.03;;;;;;;17.41;100.00;94102.45;1675240;84;21019;-57
2022/07/31 01:32:26;;;;;;;11.85;8.40;;;;;;;17.43;100.00;94110.42;1672811;85;20995;-58
2022/07/31 01:35:02;;;;;;;13.43;8.00;;;;;;;17.45;100.00;94109.93;1667586;85;21017;-58
2022/07/31 01:37:33;;;;;;;10.30;7.30;;;;;;;17.48;100.00;94104.09;1646641;85;21279;-57
2022/07/31 01:40:09;;;;;;;9.20;7.00;;;;;;;17.55;100.00;94102.83;1655958;84;21020;-57
2022/07/31 01:42:40;;;;;;;9.48;6.47;;;;;;;17.57;100.00;94098.91;1654084;85;21019;-56
2022/07/31 01:45:09;;;;;;;8.18;7.10;;;;;;;17.55;100.00;94095.88;1666958;84;21500;-58
2022/07/31 01:47:37;;;;;;;8.28;6.28;;;;;;;17.55;100.00;94090.31;1676500;85;21002;-56
2022/07/31 01:50:07;;;;;;;6.65;5.83;;;;;;;17.52;100.00;94094.11;1681308;84;21177;-57
2022/07/31 01:52:35;;;;;;;7.20;6.15;;;;;;;17.46;100.00;94100.32;1667685;84;21015;-57
2022/07/31 01:55:04;;;;;;;8.63;6.12;;;;;;;17.47;100.00;94100.44;1645602;84;21151;-57
2022/07/31 01:57:32;;;;;;;12.88;5.58;;;;;;;17.45;100.00;94107.15;1660617;85;20994;-57
2022/07/31 02:00:05;;;;;;;7.70;5.78;;;;;;;17.42;100.00;94102.61;1652849;85;21051;-57
2022/07/31 02:02:43;;;;;;;11.68;6.12;;;;;;;17.40;100.00;94100.94;1673893;85;21147;-57
2022/07/31 02:05:11;;;;;;;6.55;5.42;;;;;;;17.40;100.00;94102.33;1646914;85;21046;-57
2022/07/31 02:07:41;;;;;;;7.67;5.58;;;;;;;17.40;100.00;94108.66;1659341;85;21006;-57
2022/07/31 02:10:10;;;;;;;7.42;6.65;;;;;;;17.41;100.00;94114.34;1648400;85;20995;-57
2022/07/31 02:12:38;;;;;;;7.03;6.33;;;;;;;17.44;100.00;94107.02;1640535;85;21019;-57
2022/07/31 02:15:08;;;;;;;6.92;5.78;;;;;;;17.47;100.00;94099.05;1643111;85;21072;-57
2022/07/31 02:17:37;;;;;;;5.92;5.33;;;;;;;17.49;100.00;94099.30;1665598;85;21007;-57
2022/07/31 02:20:24;;;;;;;7.33;5.55;;;;;;;17.54;100.00;94095.13;1657088;85;21121;-57
2022/07/31 02:22:54;;;;;;;6.03;5.47;;;;;;;17.60;100.00;94086.14;1670712;85;20987;-57
2022/07/31 02:25:23;;;;;;;8.30;4.90;;;;;;;17.60;100.00;94088.15;1678100;85;21002;-57
2022/07/31 02:27:51;;;;;;;5.95;5.33;;;;;;;17.61;100.00;94080.70;1679451;84;21170;-57
2022/07/31 02:30:20;;;;;;;6.25;5.50;;;;;;;17.60;100.00;94079.80;1651564;84;21007;-58
2022/07/31 02:32:49;;;;;;;9.85;6.12;;;;;;;17.57;100.00;94078.81;1652487;85;20992;-57
2022/07/31 02:35:18;;;;;;;8.35;6.67;;;;;;;17.53;100.00;94081.09;1668273;85;21665;-58
2022/07/31 02:37:50;;;;;;;16.50;7.30;;;;;;;17.56;100.00;94077.92;1674900;85;21018;-57
2022/07/31 02:40:18;;;;;;;11.43;5.60;;;;;;;17.60;100.00;94079.80;1646146;85;21791;-57
2022/07/31 02:42:46;;;;;;;9.00;6.17;;;;;;;17.63;100.00;94074.64;1643436;85;21019;-57
2022/07/31 02:45:14;;;;;;;7.08;5.75;;;;;;;17.66;100.00;94083.35;1647525;85;20971;-57
2022/07/31 02:47:43;;;;;;;9.45;6.78;;;;;;;17.64;100.00;94079.67;1678684;85;20990;-57
2022/07/31 02:50:12;;;;;;;10.13;6.75;;;;;;;17.63;100.00;94078.81;1664258;84;20979;-57
2022/07/31 02:52:40;;;;;;;7.90;6.12;;;;;;;17.60;100.00;94072.84;1624032;85;21697;-57
2022/07/31 02:55:09;;;;;;;7.35;5.92;;;;;;;17.55;100.00;94068.06;1671919;85;21531;-56
2022/07/31 02:57:37;;;;;;;10.00;6.40;;;;;;;17.51;100.00;94068.95;1628594;85;21034;-57
2022/07/31 03:00:21;;;;;;;10.82;7.30;;;;;;;17.47;100.00;94070.59;1653187;85;21023;-57
2022/07/31 03:02:46;;;;;;;8.33;7.03;;;;;;;17.46;100.00;94071.86;1667617;84;21148;-57
2022/07/31 03:05:14;;;;;;;11.40;6.75;;;;;;;17.47;100.00;94069.20;1663809;85;21133;-57
2022/07/31 03:07:44;;;;;;;8.20;6.17;;;;;;;17.49;100.00;94070.10;1664054;84;21362;-57
2022/07/31 03:10:13;;;;;;;6.58;5.97;;;;;;;17.49;100.00;94070.10;1653442;85;20967;-57
2022/07/31 03:12:50;;;;;;;10.45;6.70;;;;;;;17.48;100.00;94079.06;1648858;85;21062;-57
2022/07/31 03:15:19;;;;;;;10.98;6.62;;;;;;;17.46;100.00;94082.25;1658239;85;21020;-57
2022/07/31 03:17:47;;;;;;;11.15;5.83;;;;;;;17.43;100.00;94077.05;1656727;85;21131;-57
2022/07/31 03:20:18;;;;;;;5.80;4.87;;;;;;;17.44;100.00;94075.78;1641952;85;21063;-57
2022/07/31 03:22:46;;;;;;;7.58;6.40;;;;;;;17.44;100.00;94078.56;1660425;85;21499;-56
2022/07/31 03:25:15;;;;;;;10.48;6.22;;;;;;;17.42;100.00;94074.80;1658014;85;21088;-57
2022/07/31 03:27:43;;;;;;;7.67;6.65;;;;;;;17.43;100.00;94070.75;1646984;86;20978;-57
2022/07/31 03:30:23;;;;;;;7.40;5.92;;;;;;;17.44;100.00;94070.22;1655636;85;21220;-56
2022/07/31 03:32:46;;;;;;;9.38;6.55;;;;;;;17.46;100.00;94071.13;1667447;84;20970;-57
2022/07/31 03:35:14;;;;;;;9.60;7.22;;;;;;;17.47;100.00;94078.20;1640987;85;21196;-57
2022/07/31 03:37:43;;;;;;;11.78;8.10;;;;;;;17.45;100.00;94086.30;1661179;84;20982;-57
2022/07/31 03:40:11;;;;;;;15.85;8.63;;;;;;;17.47;100.00;94080.98;1680219;84;21095;-57
2022/07/31 03:42:39;;;;;;;9.90;7.55;;;;;;;17.52;100.00;94082.37;1674514;84;21951;-57
2022/07/31 03:45:08;;;;;;;10.78;7.05;;;;;;;17.57;100.00;94084.38;1677198;85;21058;-57
2022/07/31 03:47:35;;;;;;;9.38;6.70;;;;;;;17.63;100.00;94089.29;1660240;84;21106;-59
2022/07/31 03:50:04;;;;;;;10.55;7.03;;;;;;;17.66;100.00;94087.53;1642199;85;21022;-58
2022/07/31 03:52:32;;;;;;;8.75;7.15;;;;;;;17.63;100.00;94090.68;1671262;85;21038;-57
2022/07/31 03:55:01;;;;;;;7.62;6.83;;;;;;;17.58;100.00;94090.06;1669256;85;21704;-57
2022/07/31 03:57:29;;;;;;;6.97;6.28;;;;;;;17.54;100.00;94084.01;1685521;85;21545;-58
2022/07/31 03:59:58;;;;;;;10.00;6.40;;;;;;;17.56;100.00;94084.25;1686661;84;21073;-58
2022/07/31 04:02:27;;;;;;;10.43;7.75;;;;;;;17.63;100.00;94087.16;1670023;84;21081;-59
2022/07/31 04:04:56;;;;;;;11.35;7.62;;;;;;;17.66;100.00;94086.14;1666384;84;21113;-59
2022/07/31 04:07:24;;;;;;;9.88;7.62;;;;;;;17.62;100.00;94089.17;1637791;86;21229;-58
2022/07/31 04:09:53;;;;;;;14.03;7.53;;;;;;;17.57;100.00;94089.94;1669086;85;21456;-56
2022/07/31 04:12:22;;;;;;;7.62;6.28;;;;;;;17.59;100.00;94096.37;1652411;85;21011;-58
2022/07/31 04:14:51;;;;;;;8.68;7.33;;;;;;;17.62;100.00;94098.16;1667192;84;21084;-58
2022/07/31 04:17:20;;;;;;;13.58;7.70;;;;;;;17.66;100.00;94096.61;1671174;84;21160;-58
2022/07/31 04:19:48;;;;;;;8.20;6.42;;;;;;;17.69;100.00;94092.84;1658144;85;21244;-58
2022/07/31 04:22:16;;;;;;;10.75;6.87;;;;;;;17.71;100.00;94092.31;1652785;86;21066;-58
2022/07/31 04:24:45;;;;;;;10.15;7.15;;;;;;;17.72;100.00;94096.61;1639191;86;21014;-58
2022/07/31 04:27:34;;;;;;;11.20;7.62;;;;;;;17.72;100.00;94091.05;1594490;88;21044;-57
2022/07/31 04:30:02;;;;;;;7.95;6.60;;;;;;;17.70;100.00;94093.58;1590211;88;21537;-57
2022/07/31 04:32:31;;;;;;;10.45;6.65;;;;;;;17.70;100.00;94090.80;1631386;86;21262;-57
2022/07/31 04:35:01;;;;;;;8.23;7.42;;;;;;;17.73;100.00;94087.00;1641716;84;20959;-58
2022/07/31 04:37:31;;;;;;;9.80;7.30;;;;;;;17.73;100.00;94085.61;1637535;86;21013;-58
2022/07/31 04:39:59;;;;;;;9.25;7.15;;;;;;;17.70;100.00;94078.28;1632652;86;21063;-58
2022/07/31 04:42:28;;;;;;;8.73;7.28;;;;;;;17.64;100.00;94077.55;1653952;85;21141;-58
2022/07/31 04:44:56;;;;;;;7.70;5.97;;;;;;;17.60;100.00;94077.02;1648480;85;21250;-57
2022/07/31 04:47:25;;;;;;;7.62;6.75;;;;;;;17.60;100.00;94080.58;1657363;85;20996;-57
2022/07/31 04:49:54;;;;;;;8.53;7.72;;;;;;;17.62;100.00;94075.91;1675501;84;20967;-57
2022/07/31 04:52:22;;;;;;;11.60;7.67;;;;;;;17.62;100.00;94074.52;1686566;84;21002;-57
2022/07/31 04:54:52;;;;;;;7.90;7.10;;;;;;;17.64;100.00;94073.38;1661314;84;21078;-57
2022/07/31 04:57:20;;;;;;;7.67;6.87;;;;;;;17.65;100.00;94071.45;1649163;84;21243;-58
2022/07/31 04:59:48;;;;;;;7.78;6.97;;;;;;;17.64;100.00;94071.98;1658882;86;21022;-58
2022/07/31 05:02:16;;;;;;;9.23;7.08;;;;;;;17.67;100.00;94072.34;1679026;84;21176;-57
2022/07/31 05:04:44;;;;;;;10.15;9.05;;;;;;;17.69;100.00;94073.98;1660525;84;21015;-58
2022/07/31 05:07:12;;;;;;;10.70;9.33;;;;;;;17.72;100.00;94074.36;1677461;84;20981;-59
2022/07/31 05:09:43;;;;;;;9.58;8.68;;;;;;;17.76;100.00;94077.63;1670305;84;21744;-59
2022/07/31 05:12:11;;;;;;;10.98;8.53;;;;;;;17.78;100.00;94078.64;1667622;85;20982;-57
2022/07/31 05:14:40;;;;;;;11.53;8.53;;;;;;;17.78;100.00;94077.25;1649230;85;21078;-58
2022/07/31 05:17:08;;;;;;;8.90;8.00;;;;;;;17.82;100.00;94083.95;1663638;85;21010;-57
2022/07/31 05:19:44;;;;;;;8.78;7.87;;;;;;;17.81;100.00;94072.70;1673948;84;21015;-58
2022/07/31 05:22:23;;;;;;;7.53;6.72;;;;;;;17.78;100.00;94078.64;1647575;84;21343;-57
2022/07/31 05:25:08;;;;;;;8.20;6.80;;;;;;;17.76;100.00;94077.63;1639007;86;21079;-58
2022/07/31 05:27:36;;;;;;;8.73;7.05;;;;;;;17.79;100.00;94074.59;1654450;85;21561;-58
2022/07/31 05:30:07;;;;;;;8.28;6.80;;;;;;;17.84;100.00;94073.07;1662562;84;21447;-58
2022/07/31 05:32:35;;;;;;;8.55;7.35;;;;;;;17.86;100.00;94081.66;1652118;85;20995;-58
2022/07/31 05:35:04;;;;;;;7.00;5.90;;;;;;;17.88;100.00;94076.34;1648170;86;21269;-58
2022/07/31 05:37:33;;;;;;;7.53;5.70;;;;;;;17.94;100.00;94083.41;1626193;87;20968;-58
2022/07/31 05:40:02;;;;;;;7.80;6.97;;;;;;;17.98;100.00;94076.94;1665936;84;21006;-58
2022/07/31 05:42:47;;;;;;;9.25;7.55;;;;;;;17.99;100.00;94088.84;1658372;84;21510;-59
2022/07/31 05:45:23;;;;;;;8.28;7.37;;;;;;;18.02;100.00;94083.00;1657449;85;20931;-59
2022/07/31 05:47:52;;;;;;;9.20;7.40;;;;;;;18.07;100.00;94080.08;1661664;85;21301;-58
2022/07/31 05:50:20;;;;;;;9.63;6.62;;;;;;;18.11;100.00;94075.77;1658570;84;21000;-58
2022/07/31 05:52:48;;;;;;;7.47;6.45;;;;;;;18.18;100.00;94071.70;1660042;84;21018;-58
2022/07/31 05:55:35;;;;;;;7.58;6.83;;;;;;;18.23;100.00;94068.25;1675963;84;20980;-58
2022/07/31 05:58:14;;;;;;;8.00;7.20;;;;;;;18.27;100.00;94063.84;1657297;85;21451;-58
2022/07/31 06:00:43;;;;;;;6.78;6.17;;;;;;;18.28;100.00;94065.36;1621656;87;21233;-58
2022/07/31 06:03:12;;;;;;;7.95;6.20;;;;;;;18.29;100.00;94057.86;1651588;86;21027;-58
2022/07/31 06:05:46;;;;;;;7.85;7.05;;;;;;;18.36;100.00;94047.59;1650510;86;21079;-58
2022/07/31 06:08:14;;;;;;;8.38;7.50;;;;;;;18.44;100.00;94053.39;1643071;86;20987;-57
2022/07/31 06:10:44;;;;;;;8.35;7.53;;;;;;;18.50;100.00;94052.06;1621842;87;21452;-57
2022/07/31 06:13:13;;;;;;;9.23;6.40;;;;;;;18.54;100.00;94052.56;1606622;87;21253;-58
2022/07/31 06:15:42;;;;;;;6.80;6.10;;;;;;;18.60;100.00;94056.07;1585284;88;21008;-58
2022/07/31 06:18:13;;;;;;;7.75;7.05;;;;;;;18.61;100.00;94052.01;1649779;85;21136;-58
2022/07/31 06:20:41;;;;;;;8.48;6.60;;;;;;;18.70;100.00;94051.72;1665885;85;21023;-59
2022/07/31 06:23:10;;;;;;;8.53;7.12;;;;;;;18.79;100.00;94050.00;1662444;85;21022;-58
2022/07/31 06:25:39;;;;;;;7.03;6.30;;;;;;;18.86;100.00;94050.08;1680507;84;21143;-58
2022/07/31 06:28:07;;;;;;;7.08;6.22;;;;;;;18.96;100.00;94049.88;1681699;85;21510;-57
2022/07/31 06:30:36;;;;;;;6.85;6.15;;;;;;;19.06;100.00;94044.11;1661120;85;21033;-58
2022/07/31 06:33:04;;;;;;;11.83;6.97;;;;;;;19.13;100.00;94044.30;1634475;85;21022;-58
2022/07/31 06:35:33;;;;;;;10.60;6.78;;;;;;;19.17;99.48;94046.20;1640512;85;21069;-59
2022/07/31 06:38:14;;;;;;;8.23;6.60;;;;;;;19.27;99.63;94046.00;1641567;84;21252;-57
2022/07/31 06:40:51;;;;;;;7.47;6.75;;;;;;;19.31;99.03;94045.08;1665639;84;21074;-58
2022/07/31 06:43:30;;;;;;;8.25;7.47;;;;;;;19.33;99.18;94043.91;1669838;85;21088;-58
2022/07/31 06:46:18;;;;;;;7.75;6.95;;;;;;;19.38;99.41;94035.38;1590999;89;21237;-58
2022/07/31 06:49:06;;;;;;;7.87;7.10;;;;;;;19.41;98.86;94035.73;1591514;89;21164;-59
2022/07/31 06:51:34;;;;;;;8.23;6.28;;;;;;;19.35;98.49;94036.44;1622616;86;21582;-58
2022/07/31 06:54:04;;;;;;;7.35;6.62;;;;;;;19.28;98.75;94026.59;1669209;84;21090;-60
2022/07/31 06:56:32;;;;;;;7.60;6.50;;;;;;;19.23;98.87;94034.34;1661802;84;21525;-57
2022/07/31 06:59:00;;;;;;;7.22;6.50;;;;;;;19.23;99.64;94041.33;1648244;85;21046;-58
2022/07/31 07:01:28;;;;;;;8.63;7.72;;;;;;;19.26;99.88;94028.38;1645948;85;21070;-60
2022/07/31 07:03:56;;;;;;;8.23;7.42;;;;;;;19.30;99.69;94026.06;1663555;84;21578;-58
2022/07/31 07:06:25;;;;;;;8.20;7.15;;;;;;;19.33;99.61;94025.78;1660876;85;21054;-58
2022/07/31 07:08:52;;;;;;;7.75;7.03;;;;;;;19.31;99.55;94019.97;1648119;85;21019;-59
2022/07/31 07:11:23;;;;;;;7.70;6.90;;;;;;;19.30;99.48;94008.70;1644236;85;21000;-59
2022/07/31 07:13:51;;;;;;;9.63;8.03;;;;;;;19.29;99.71;94016.17;1674352;84;21137;-58
2022/07/31 07:16:19;;;;;;;10.10;7.42;;;;;;;19.30;100.00;94021.88;1634824;86;21245;-58
2022/07/31 07:18:48;;;;;;;7.90;6.97;;;;;;;19.37;100.00;94026.25;1613972;85;21541;-59
2022/07/31 07:21:16;;;;;;;7.90;7.10;;;;;;;19.38;100.00;94024.23;1642395;85;21247;-57
2022/07/31 07:23:44;;;;;;;9.43;6.60;;;;;;;19.32;99.70;94020.09;1669612;85;21435;-58
2022/07/31 07:26:19;;;;;;;9.03;6.87;;;;;;;19.27;99.85;94018.11;1656790;84;21065;-57
2022/07/31 07:28:47;;;;;;;8.53;7.60;;;;;;;19.27;100.00;94023.69;1666341;84;21216;-58
2022/07/31 07:31:15;;;;;;;9.35;7.67;;;;;;;19.31;100.00;94016.41;1686731;84;21022;-57
2022/07/31 07:33:44;;;;;;;8.65;6.15;;;;;;;19.34;100.00;94011.95;1644956;85;21006;-57
2022/07/31 07:36:14;;;;;;;7.85;7.05;;;;;;;19.43;100.00;94008.84;1654738;85;21083;-57
2022/07/31 07:38:42;;;;;;;8.08;7.28;;;;;;;19.50;100.00;94015.23;1660336;85;21446;-58
2022/07/31 07:41:10;;;;;;;9.78;8.33;;;;;;;19.60;100.00;94013.59;1664863;86;21096;-61
2022/07/31 07:43:38;;;;;;;8.80;7.83;;;;;;;19.72;100.00;94014.99;1633748;85;21050;-58
2022/07/31 07:46:06;;;;;;;9.25;8.28;;;;;;;19.78;100.00;94014.28;1601529;88;21081;-58
2022/07/31 07:48:36;;;;;;;8.80;7.85;;;;;;;19.81;99.17;94016.05;1654963;85;21072;-58
2022/07/31 07:51:16;;;;;;;10.53;8.98;;;;;;;19.80;98.34;94014.55;1656076;84;21035;-59
2022/07/31 07:54:02;;;;;;;10.38;9.38;;;;;;;19.80;98.09;94011.75;1663041;85;21781;-57
2022/07/31 07:56:40;;;;;;;9.73;8.48;;;;;;;19.85;97.82;94008.13;1620985;87;21085;-58
2022/07/31 07:59:11;;;;;;;11.68;8.38;;;;;;;19.91;97.44;93999.05;1631248;85;21054;-58
2022/07/31 08:01:41;;;;;;;9.48;7.40;;;;;;;19.96;97.29;94005.86;1637515;85;20996;-62
2022/07/31 08:04:17;;;;;;;8.95;8.00;;;;;;;20.06;97.64;94014.77;1665701;85;21079;-58
2022/07/31 08:06:45;;;;;;;9.60;8.60;;;;;;;20.16;96.78;94014.53;1669422;84;21284;-57
2022/07/31 08:09:14;;;;;;;8.70;7.78;;;;;;;20.23;96.45;94016.72;1669212;85;21052;-58
2022/07/31 08:11:44;;;;;;;7.83;6.95;;;;;;;20.32;96.77;94013.55;1606565;85;21015;-62
2022/07/31 08:14:15;;;;;;;18.90;10.13;;;;;;;20.46;96.85;94013.75;1644471;85;20999;-58
2022/07/31 08:17:01;;;;;;;10.32;7.80;;;;;;;20.57;96.34;94008.02;1640303;86;21023;-58
2022/07/31 08:19:29;;;;;;;8.45;7.65;;;;;;;20.70;95.25;94016.48;1660761;86;21207;-58
2022/07/31 08:21:58;;;;;;;8.98;8.08;;;;;;;20.76;93.51;94016.48;1651738;86;21426;-58
2022/07/31 08:24:26;;;;;;;9.88;8.88;;;;;;;20.79;93.16;94024.47;1637074;86;21089;-58
2022/07/31 08:29:42;;;;;;;8.13;7.33;;;;;;;20.86;91.69;94015.48;1645026;86;20962;-58
2022/07/31 08:32:13;;;;;;;10.93;8.75;;;;;;;20.85;90.72;94018.17;1637983;86;21089;-59
2022/07/31 08:35:00;;;;;;;7.70;7.00;;;;;;;20.85;90.36;94012.58;1646059;86;21533;-58
2022/07/31 08:37:31;;;;;;;7.10;6.33;;;;;;;20.85;89.03;94018.17;1648840;85;21067;-60
2022/07/31 08:40:00;;;;;;;6.22;5.62;;;;;;;20.88;88.15;94014.31;1630491;86;21097;-58
2022/07/31 08:42:28;;;;;;;9.55;6.40;;;;;;;20.92;87.39;94013.38;1635176;86;21082;-58
2022/07/31 08:44:57;;;;;;;7.22;5.45;;;;;;;20.94;86.32;94005.21;1645692;85;21210;-59
2022/07/31 08:47:26;;;;;;;6.58;5.90;;;;;;;21.04;85.20;94009.11;1632246;85;21524;-58
2022/07/31 08:49:55;;;;;;;6.08;5.55;;;;;;;21.15;85.00;94009.69;1658667;85;20998;-59
2022/07/31 08:52:24;;;;;;;6.37;4.78;;;;;;;21.22;84.03;94003.48;1678986;85;21066;-58
2022/07/31 08:54:59;;;;;;;7.22;6.28;;;;;;;21.31;83.20;94005.86;1629505;85;21003;-58
2022/07/31 08:57:28;;;;;;;8.00;6.35;;;;;;;21.36;83.00;94007.06;1630586;85;21809;-58
2022/07/31 08:59:56;;;;;;;6.25;5.65;;;;;;;21.35;83.96;94004.16;1656005;84;21531;-58
2022/07/31 09:02:25;;;;;;;5.92;5.20;;;;;;;21.39;84.57;94004.59;1627262;86;20991;-58
2022/07/31 09:04:55;;;;;;;5.15;4.67;;;;;;;21.49;84.16;93990.30;1617505;86;22154;-59
2022/07/31 09:07:24;;;;;;;5.95;5.35;;;;;;;21.59;83.29;93995.58;1657914;85;21018;-57
2022/07/31 09:09:52;;;;;;;5.70;4.90;;;;;;;21.69;83.68;93996.71;1625546;85;21898;-59
2022/07/31 09:12:32;;;;;;;7.72;5.33;;;;;;;21.78;83.43;93990.67;1640284;86;21007;-60
2022/07/31 09:15:09;;;;;;;5.90;5.35;;;;;;;21.87;82.74;93988.86;1639714;85;21015;-59
2022/07/31 09:17:36;;;;;;;5.42;4.92;;;;;;;21.97;81.82;93991.33;1605322;88;22099;-58
2022/07/31 09:20:05;;;;;;;6.83;6.22;;;;;;;21.99;81.28;93990.16;1651870;86;20965;-58
2022/07/31 09:22:35;;;;;;;7.78;6.35;;;;;;;22.01;80.95;93991.78;1617680;85;21255;-58
2022/07/31 09:25:19;;;;;;;7.58;6.65;;;;;;;22.07;80.88;93993.92;1649884;85;21003;-57
2022/07/31 09:27:47;;;;;;;6.97;5.58;;;;;;;22.16;81.52;93997.70;1661636;85;21535;-59
2022/07/31 09:30:15;;;;;;;6.22;5.62;;;;;;;22.18;81.04;93995.11;1656423;85;21019;-57
2022/07/31 09:32:53;;;;;;;6.60;6.00;;;;;;;22.13;80.33;94001.56;1655901;85;21447;-57
2022/07/31 09:35:26;;;;;;;6.17;5.67;;;;;;;22.07;80.56;93998.12;1655730;84;21939;-60
2022/07/31 09:37:54;;;;;;;6.70;6.10;;;;;;;22.05;80.46;93999.95;1676756;85;21051;-60
2022/07/31 09:40:45;;;;;;;6.83;6.15;;;;;;;22.00;80.28;94002.87;1623024;86;21088;-58
2022/07/31 09:43:23;;;;;;;6.45;5.85;;;;;;;21.99;81.23;94005.58;1592477;86;21010;-60
2022/07/31 09:46:00;;;;;;;6.55;5.95;;;;;;;21.96;80.89;94013.62;1643998;85;21191;-59
2022/07/31 09:48:29;;;;;;;9.00;6.20;;;;;;;21.92;80.83;94007.60;1681477;85;21234;-58
2022/07/31 09:50:59;;;;;;;7.10;6.35;;;;;;;21.85;80.68;94010.39;1680594;85;21079;-58
2022/07/31 09:53:40;;;;;;;13.18;6.62;;;;;;;21.82;80.97;94016.34;1662526;83;21516;-67
2022/07/31 09:56:15;;;;;;;6.78;6.12;;;;;;;21.80;80.98;94018.27;1632316;85;21498;-57
2022/07/31 09:58:44;;;;;;;6.67;6.05;;;;;;;21.76;80.67;94019.86;1635954;87;21043;-60
2022/07/31 10:01:13;;;;;;;8.68;6.97;;;;;;;21.73;81.16;94020.31;1652919;86;21275;-57
2022/07/31 10:03:41;;;;;;;7.10;6.40;;;;;;;21.69;82.02;94032.45;1655582;86;21122;-58
2022/07/31 10:06:12;;;;;;;6.42;5.80;;;;;;;21.63;82.59;94038.80;1634180;86;21001;-58
2022/07/31 10:08:40;;;;;;;5.40;4.90;;;;;;;21.50;82.37;94040.14;1656551;85;20963;-57
2022/07/31 10:11:26;;;;;;;5.80;5.20;;;;;;;21.39;82.57;94042.38;1674175;85;21673;-59
2022/07/31 10:13:59;;;;;;;5.47;4.95;;;;;;;21.28;83.74;94042.57;1684481;84;21256;-58
2022/07/31 10:16:28;;;;;;;5.37;4.87;;;;;;;21.14;84.88;94053.59;1663481;84;21199;-58
2022/07/31 10:19:10;;;;;;;6.50;5.90;;;;;;;20.99;86.01;94049.11;1559238;90;21592;-60
2022/07/31 10:21:41;;;;;;;6.25;5.62;;;;;;;20.91;87.67;94038.44;1643286;86;21007;-64
2022/07/31 10:24:11;;;;;;;;;;;;;;;20.91;88.71;94031.45;1649895;86;21125;-60
2022/07/31 10:26:41;;;;;;;7.90;4.85;;;;;;;21.03;88.53;94034.94;1654137;85;21164;-59
2022/07/31 10:29:09;;;;;;;5.10;3.10;;;;;;;21.15;88.32;94036.92;1665038;84;21018;-60
2022/07/31 10:31:38;;;;;;;3.85;2.33;;;;;;;21.23;86.83;94039.20;1660811;85;21590;-59
2022/07/31 10:34:06;;;;;;;2.55;2.35;;;;;;;21.31;86.42;94038.04;1675381;84;21603;-64
2022/07/31 10:36:38;;;;;;;2.62;2.00;;;;;;;21.37;85.24;94047.13;1637485;85;21129;-59
2022/07/31 10:39:33;;;;;;;1.70;1.60;;;;;;;21.40;84.75;94037.65;1644295;84;21245;-60
2022/07/31 10:42:32;;;;;;;1.82;1.72;;;;;;;21.40;83.69;94042.48;1662731;84;21016;-58
2022/07/31 10:45:07;;;;;;;2.52;2.33;;;;;;;21.36;82.84;94046.24;1668700;85;21082;-60
2022/07/31 10:47:39;;;;;;;3.10;2.83;;;;;;;21.31;82.77;94042.23;1657006;85;21010;-59
2022/07/31 10:50:23;;;;;;;3.95;3.60;;;;;;;21.33;83.21;94040.32;1676201;84;21047;-58
2022/07/31 10:52:57;;;;;;;3.98;3.62;;;;;;;21.35;83.41;94040.53;1651882;84;21161;-59
2022/07/31 10:55:28;;;;;;;4.10;3.37;;;;;;;21.32;84.21;94031.81;1616495;86;20974;-58
2022/07/31 10:58:14;;;;;;;4.45;3.60;;;;;;;21.28;84.22;94033.52;1642297;86;21006;-58
2022/07/31 11:00:52;;;;;;;3.60;3.30;;;;;;;21.28;84.11;94034.91;1645038;86;21419;-58
2022/07/31 11:03:21;;;;;;;10.85;9.65;;;;;;;21.32;83.75;94036.01;1626255;87;21069;-58
2022/07/31 11:06:00;;;;;;;5.80;3.80;;;;;;;21.40;84.07;94036.88;1629123;87;21258;-57
2022/07/31 11:08:52;;;;;;;4.40;4.00;;;;;;;21.47;83.56;94034.22;1633547;86;21549;-58
2022/07/31 11:11:41;;;;;;;4.25;3.85;;;;;;;21.63;82.33;94045.80;1625461;86;20987;-58
2022/07/31 11:14:38;;;;;;;4.10;3.70;;;;;;;21.63;82.33;94045.80;1614841;88;21075;-59
2022/07/31 11:17:37;;;;;;;6.05;4.10;;;;;;;21.65;82.95;94036.22;1623882;87;21006;-57
2022/07/31 11:20:28;;;;;;;4.30;3.90;;;;;;;21.71;83.60;94037.53;1637935;86;21864;-58
2022/07/31 11:23:08;;;;;;;4.00;3.67;;;;;;;21.92;84.24;94042.61;1655065;86;21084;-58
2022/07/31 11:25:37;;;;;;;4.50;4.10;;;;;;;22.10;84.21;94025.05;1659284;86;21086;-58
2022/07/31 11:28:26;;;;;;;4.08;3.67;;;;;;;22.23;84.06;94025.06;1640911;87;21431;-58
2022/07/31 11:31:02;;;;;;;4.78;3.98;;;;;;;22.35;83.62;94031.19;1644774;86;20966;-59
2022/07/31 11:33:37;;;;;;;4.40;3.92;;;;;;;22.42;81.46;94023.55;1655246;86;21742;-58
2022/07/31 11:36:09;;;;;;;3.67;3.30;;;;;;;22.48;81.06;94022.80;1653606;86;21006;-57
2022/07/31 11:38:37;;;;;;;4.00;3.70;;;;;;;22.65;80.97;94014.80;1658488;86;21081;-59
2022/07/31 11:41:06;;;;;;;4.45;4.05;;;;;;;22.87;79.17;94014.30;1635944;86;20987;-59
2022/07/31 11:43:36;;;;;;;4.12;2.95;;;;;;;23.00;77.75;94012.19;1658763;86;21178;-59
2022/07/31 11:46:04;;;;;;;3.60;3.15;;;;;;;23.04;73.71;94012.60;1651308;86;21162;-58
2022/07/31 11:48:33;;;;;;;2.65;2.40;;;;;;;23.07;73.07;94014.34;1653418;85;21002;-57
2022/07/31 11:51:01;;;;;;;2.80;2.52;;;;;;;23.05;68.56;94006.35;1635001;86;21085;-58